Time;durP1;ratioP1;P1;durP2;ratioP2;P2;SDS_P1;SDS_P2;PMS_P1;PMS_P2;Temp;Humidity;BMP_temperature;BMP_pressure;BME280_temperature;BME280_humidity;BME280_pressure;Samples;Min_cycle;Max_cycle;Signal;HPM_P1;HPM_P2
2022/10/15 00:01:28;;;;;;;1.17;1.00;;;;;;;13.95;100.00;97694.53;15273219;19;20014;-57
2022/10/15 00:06:51;;;;;;;1.08;0.90;;;;;;;13.95;100.00;97693.69;15276010;19;20365;-53
2022/10/15 00:12:16;;;;;;;0.90;0.90;;;;;;;13.94;100.00;97694.72;15272001;19;20541;-53
2022/10/15 00:17:45;;;;;;;1.35;0.90;;;;;;;13.96;100.00;97685.38;15275632;19;20018;-55
2022/10/15 00:23:11;;;;;;;1.77;0.80;;;;;;;13.97;100.00;97667.25;15279537;19;20021;-54
2022/10/15 00:28:35;;;;;;;1.23;0.80;;;;;;;13.97;100.00;97670.81;15277493;19;20021;-54
2022/10/15 00:34:06;;;;;;;0.80;0.73;;;;;;;14.00;100.00;97677.69;15273006;19;20010;-51
2022/10/15 00:39:30;;;;;;;0.80;0.80;;;;;;;14.01;100.00;97657.69;15265957;19;20110;-57
2022/10/15 00:44:57;;;;;;;0.88;0.65;;;;;;;14.02;100.00;97667.50;15278275;19;20011;-53
2022/10/15 00:50:27;;;;;;;1.10;0.65;;;;;;;14.00;100.00;97667.69;15276382;19;20019;-56
2022/10/15 00:55:52;;;;;;;1.42;0.65;;;;;;;14.00;100.00;97672.28;15274099;19;20127;-58
2022/10/15 01:01:16;;;;;;;0.70;0.70;;;;;;;14.01;100.00;97679.38;15270092;19;20015;-56
2022/10/15 01:06:44;;;;;;;0.80;0.70;;;;;;;14.01;100.00;97671.25;15272469;19;20018;-56
2022/10/15 01:12:09;;;;;;;1.25;1.00;;;;;;;14.00;100.00;97666.84;15270627;19;20010;-57
2022/10/15 01:17:43;;;;;;;1.05;0.70;;;;;;;14.02;100.00;97664.78;15270131;19;20019;-56
2022/10/15 01:23:39;;;;;;;0.85;0.75;;;;;;;14.01;100.00;97649.56;15274611;19;20114;-55
2022/10/15 01:29:17;;;;;;;0.80;0.73;;;;;;;14.00;100.00;97642.47;15270823;19;20022;-59
2022/10/15 01:34:51;;;;;;;1.17;0.80;;;;;;;13.97;100.00;97634.75;15268271;19;20020;-56
2022/10/15 01:40:22;;;;;;;1.08;0.60;;;;;;;13.95;100.00;97637.69;15271213;19;20014;-57
2022/10/15 01:45:55;;;;;;;1.45;0.70;;;;;;;13.94;100.00;97629.75;15272896;19;20074;-58
2022/10/15 01:51:43;;;;;;;1.38;0.70;;;;;;;13.93;100.00;97628.91;15259252;19;20022;-57
2022/10/15 01:57:08;;;;;;;0.70;0.70;;;;;;;13.91;100.00;97608.50;15266808;19;20026;-57
2022/10/15 02:02:33;;;;;;;0.73;0.60;;;;;;;13.87;100.00;97613.50;15266329;19;20501;-57
2022/10/15 02:08:08;;;;;;;1.58;0.55;;;;;;;13.83;100.00;97623.88;15271109;19;20497;-51
2022/10/15 02:13:43;;;;;;;1.40;0.60;;;;;;;13.83;100.00;97615.75;15267316;19;20035;-55
2022/10/15 02:19:14;;;;;;;0.75;0.50;;;;;;;13.82;100.00;97603.25;15271079;19;20043;-55
2022/10/15 02:24:47;;;;;;;1.02;0.50;;;;;;;13.81;100.00;97601.59;15264132;19;20082;-57
2022/10/15 02:30:16;;;;;;;0.50;0.40;;;;;;;13.79;100.00;97609.09;15261564;19;20010;-57
2022/10/15 02:35:47;;;;;;;0.40;0.40;;;;;;;13.79;100.00;97582.03;15269480;19;20026;-58
2022/10/15 02:41:17;;;;;;;1.98;0.40;;;;;;;13.75;100.00;97577.22;15260624;19;20014;-58
2022/10/15 02:46:43;;;;;;;1.85;0.40;;;;;;;13.77;100.00;97575.13;15268535;19;20402;-57
2022/10/15 02:52:08;;;;;;;0.75;0.40;;;;;;;13.74;100.00;97557.41;15267346;19;20473;-56
2022/10/15 02:57:36;;;;;;;0.47;0.40;;;;;;;13.73;100.00;97550.31;15261934;19;20014;-58
2022/10/15 03:03:00;;;;;;;0.90;0.30;;;;;;;13.70;100.00;97548.03;15270799;19;20014;-56
2022/10/15 03:08:25;;;;;;;1.13;0.40;;;;;;;13.65;100.00;97554.03;15280817;19;20034;-59
2022/10/15 03:13:52;;;;;;;0.52;0.50;;;;;;;13.63;100.00;97564.25;15277679;19;20493;-57
2022/10/15 03:19:18;;;;;;;0.88;0.50;;;;;;;13.59;100.00;97568.41;15280365;19;20031;-55
2022/10/15 03:24:43;;;;;;;1.00;0.50;;;;;;;13.61;100.00;97569.03;15282889;19;20018;-60
2022/10/15 03:30:15;;;;;;;0.85;0.50;;;;;;;13.62;100.00;97562.59;15272973;19;20029;-53
2022/10/15 03:35:40;;;;;;;0.88;0.57;;;;;;;13.61;100.00;97555.50;15279033;19;20023;-53
2022/10/15 03:41:06;;;;;;;1.33;0.60;;;;;;;13.58;100.00;97547.78;15275210;19;20015;-59
2022/10/15 03:46:35;;;;;;;1.98;0.52;;;;;;;13.56;100.00;97560.69;15277311;19;20019;-59
2022/10/15 03:52:05;;;;;;;1.38;0.57;;;;;;;13.50;100.00;97550.66;15273456;19;20018;-59
2022/10/15 03:57:30;;;;;;;0.47;0.40;;;;;;;13.46;100.00;97554.81;15276336;19;20409;-59
2022/10/15 04:02:58;;;;;;;1.15;0.60;;;;;;;13.47;100.00;97561.88;15276187;19;20014;-59
2022/10/15 04:08:23;;;;;;;0.65;0.50;;;;;;;13.47;100.00;97560.00;15275997;19;20591;-58
2022/10/15 04:14:02;;;;;;;0.70;0.70;;;;;;;13.47;100.00;97553.78;15270778;19;20043;-60
2022/10/15 04:19:29;;;;;;;1.05;0.60;;;;;;;13.47;100.00;97537.53;15277377;19;20394;-59
2022/10/15 04:24:54;;;;;;;1.20;0.70;;;;;;;13.44;100.00;97538.78;15278435;19;20059;-57
2022/10/15 04:30:18;;;;;;;0.75;0.50;;;;;;;13.43;100.00;97531.69;15275538;19;20015;-57
2022/10/15 04:35:49;;;;;;;1.10;0.60;;;;;;;13.40;100.00;97549.19;15263949;19;20030;-59
2022/10/15 04:41:39;;;;;;;1.27;0.70;;;;;;;13.38;100.00;97555.78;15274202;19;20006;-59
2022/10/15 04:47:09;;;;;;;0.60;0.45;;;;;;;13.36;100.00;97564.09;15271150;19;20015;-59
2022/10/15 04:52:50;;;;;;;0.68;0.50;;;;;;;13.36;100.00;97574.06;15273868;19;20040;-58
2022/10/15 04:58:18;;;;;;;0.60;0.50;;;;;;;13.37;100.00;97559.50;15268270;19;20015;-58
2022/10/15 05:03:44;;;;;;;0.30;0.30;;;;;;;13.39;100.00;97554.75;15269757;19;20014;-61
2022/10/15 05:09:13;;;;;;;1.35;0.55;;;;;;;13.38;100.00;97544.94;15266330;19;20331;-60
2022/10/15 05:14:38;;;;;;;0.32;0.32;;;;;;;13.37;100.00;97532.47;15273591;19;20010;-59
2022/10/15 05:20:10;;;;;;;1.02;0.40;;;;;;;13.37;100.00;97535.16;15264839;19;20018;-58
2022/10/15 05:25:37;;;;;;;0.47;0.47;;;;;;;13.34;100.00;97552.63;15270304;19;20014;-59
2022/10/15 05:31:05;;;;;;;0.73;0.40;;;;;;;13.31;100.00;97568.44;15271792;19;20015;-60
2022/10/15 05:36:50;;;;;;;1.35;0.50;;;;;;;13.26;100.00;97572.56;15260281;19;20019;-59
2022/10/15 05:42:18;;;;;;;0.40;0.40;;;;;;;13.28;100.00;97560.72;15266561;19;20018;-58
2022/10/15 05:47:45;;;;;;;1.63;0.50;;;;;;;13.26;100.00;97569.03;15275093;19;20011;-60
2022/10/15 05:53:09;;;;;;;1.00;0.50;;;;;;;13.27;100.00;97576.13;15272354;19;20123;-60
2022/10/15 05:58:42;;;;;;;2.28;0.40;;;;;;;13.30;100.00;97583.81;15267824;19;20850;-59
2022/10/15 06:04:06;;;;;;;0.85;0.50;;;;;;;13.30;100.00;97574.88;15275282;19;20030;-60
2022/10/15 06:09:31;;;;;;;0.70;0.60;;;;;;;13.28;100.00;97579.66;15257483;19;20459;-60
2022/10/15 06:14:58;;;;;;;1.05;0.40;;;;;;;13.29;100.00;97575.91;15269046;19;20020;-60
2022/10/15 06:20:22;;;;;;;0.65;0.50;;;;;;;13.29;100.00;97573.22;15269175;19;20022;-61
2022/10/15 06:25:48;;;;;;;0.88;0.50;;;;;;;13.36;100.00;97595.72;15265594;19;20021;-60
2022/10/15 06:31:16;;;;;;;1.73;0.52;;;;;;;13.41;100.00;97596.81;15270212;19;20014;-61
2022/10/15 06:36:47;;;;;;;1.75;0.38;;;;;;;13.49;100.00;97612.06;15265782;19;20025;-60
2022/10/15 06:42:12;;;;;;;0.73;0.50;;;;;;;13.55;100.00;97624.81;15288967;19;20361;-61
2022/10/15 06:47:43;;;;;;;0.45;0.43;;;;;;;13.60;100.00;97635.03;15298904;19;20271;-60
2022/10/15 06:53:08;;;;;;;0.50;0.40;;;;;;;13.66;100.00;97644.22;15295543;19;20023;-60
2022/10/15 06:58:33;;;;;;;0.47;0.38;;;;;;;13.69;100.00;97643.81;15292048;19;20021;-59
2022/10/15 07:04:00;;;;;;;0.50;0.50;;;;;;;13.75;100.00;97645.72;14786146;19;10001269;-57
2022/10/15 07:09:25;;;;;;;0.50;0.50;;;;;;;13.84;100.00;97658.03;15286294;19;20015;-60
2022/10/15 07:14:50;;;;;;;1.67;0.75;;;;;;;13.97;100.00;97651.00;15287093;19;20018;-59
2022/10/15 07:20:18;;;;;;;0.90;0.80;;;;;;;14.08;100.00;97655.84;15294416;19;20449;-58
2022/10/15 07:25:49;;;;;;;1.25;1.05;;;;;;;14.22;100.00;97647.75;15296081;19;20041;-59
2022/10/15 07:31:13;;;;;;;1.47;0.70;;;;;;;14.29;100.00;97648.59;15296763;19;20033;-59
2022/10/15 07:36:48;;;;;;;0.55;0.47;;;;;;;14.32;100.00;97678.00;15292193;19;20291;-57
2022/10/15 07:42:13;;;;;;;0.80;0.50;;;;;;;14.38;100.00;97669.06;15293489;19;20462;-58
2022/10/15 07:47:38;;;;;;;0.88;0.60;;;;;;;14.47;100.00;97659.72;15287807;19;20023;-58
2022/10/15 07:53:05;;;;;;;0.50;0.50;;;;;;;14.55;100.00;97657.84;15278496;19;20373;-58
2022/10/15 07:58:33;;;;;;;0.50;0.40;;;;;;;14.60;100.00;97655.34;15270517;19;20014;-57
2022/10/15 08:03:58;;;;;;;0.68;0.50;;;;;;;14.71;100.00;97662.06;15278522;19;20006;-58
2022/10/15 08:09:26;;;;;;;1.08;0.50;;;;;;;14.85;100.00;97665.63;15274283;19;20497;-58
2022/10/15 08:14:50;;;;;;;2.40;0.88;;;;;;;14.96;100.00;97659.59;15277199;19;20374;-58
2022/10/15 08:20:16;;;;;;;0.70;0.70;;;;;;;15.15;100.00;97667.94;15267734;19;20017;-58
2022/10/15 08:25:43;;;;;;;2.17;0.50;;;;;;;15.23;100.00;97676.69;15279526;19;20018;-57
2022/10/15 08:31:10;;;;;;;0.35;0.32;;;;;;;15.23;100.00;97681.28;15271774;19;20039;-59
2022/10/15 08:36:41;;;;;;;0.30;0.30;;;;;;;15.30;100.00;97675.84;15273502;19;20552;-58
2022/10/15 08:42:18;;;;;;;0.20;0.20;;;;;;;15.33;100.00;97676.28;15272923;19;20022;-56
2022/10/15 08:47:46;;;;;;;0.63;0.40;;;;;;;15.36;100.00;97691.31;15270812;19;20071;-58
2022/10/15 08:53:16;;;;;;;0.95;0.40;;;;;;;15.37;100.00;97704.66;15264195;19;20022;-58
2022/10/15 08:58:54;;;;;;;0.75;0.22;;;;;;;15.43;100.00;97702.97;15272411;19;20014;-57
2022/10/15 09:04:28;;;;;;;0.10;0.10;;;;;;;15.55;100.00;97706.72;15266778;19;20013;-59
2022/10/15 09:09:58;;;;;;;0.20;0.20;;;;;;;15.68;100.00;97710.47;15267444;19;20486;-57
2022/10/15 09:15:36;;;;;;;0.20;0.20;;;;;;;15.70;100.00;97714.63;15274831;19;20029;-57
2022/10/15 09:21:02;;;;;;;0.47;0.40;;;;;;;15.82;100.00;97720.25;15266487;19;20022;-58
2022/10/15 09:26:34;;;;;;;0.95;0.30;;;;;;;15.78;100.00;97701.88;15272097;19;20022;-59
2022/10/15 09:32:11;;;;;;;1.95;0.35;;;;;;;15.89;100.00;97727.56;15272097;19;20504;-60
2022/10/15 09:37:52;;;;;;;0.63;0.30;;;;;;;16.01;100.00;97724.00;15265183;19;20030;-59
2022/10/15 09:43:30;;;;;;;0.52;0.30;;;;;;;16.14;100.00;97733.16;15273890;19;20007;-60
2022/10/15 09:49:03;;;;;;;0.82;0.30;;;;;;;16.21;100.00;97725.81;15269247;19;20018;-57
2022/10/15 09:54:36;;;;;;;0.20;0.20;;;;;;;16.27;100.00;97719.53;15264972;19;20019;-58
2022/10/15 10:00:03;;;;;;;0.43;0.20;;;;;;;16.38;100.00;97718.00;15267555;19;20011;-60
2022/10/15 10:05:33;;;;;;;0.20;0.20;;;;;;;16.47;100.00;97719.41;15273360;19;20021;-55
2022/10/15 10:11:03;;;;;;;0.20;0.20;;;;;;;16.70;100.00;97720.75;15271644;19;20713;-62
2022/10/15 10:16:30;;;;;;;0.20;0.20;;;;;;;16.75;100.00;97731.00;15285012;19;20682;-57
2022/10/15 10:22:15;;;;;;;0.40;0.10;;;;;;;16.71;100.00;97735.19;15265126;19;20010;-61
2022/10/15 10:27:47;;;;;;;0.10;0.10;;;;;;;16.79;100.00;97722.19;15253534;19;20303;-60
2022/10/15 10:33:14;;;;;;;0.20;0.10;;;;;;;16.85;100.00;97731.34;15265694;19;20018;-62
2022/10/15 10:38:42;;;;;;;0.10;0.10;;;;;;;16.96;100.00;97727.13;15263382;19;20541;-60
2022/10/15 10:44:06;;;;;;;0.60;0.15;;;;;;;17.08;100.00;97724.53;15263109;19;21004;-61
2022/10/15 10:49:36;;;;;;;0.10;0.10;;;;;;;17.15;100.00;97729.94;15262712;19;20037;-60
2022/10/15 10:55:24;;;;;;;0.13;0.13;;;;;;;17.15;100.00;97719.88;15265211;19;20022;-60
2022/10/15 11:00:51;;;;;;;0.20;0.15;;;;;;;17.18;100.00;97730.31;15257036;19;20014;-60
2022/10/15 11:06:51;;;;;;;0.20;0.20;;;;;;;17.18;100.00;97733.03;15261623;19;20083;-60
2022/10/15 11:12:37;;;;;;;0.35;0.10;;;;;;;17.31;100.00;97725.81;15263507;19;20027;-60
2022/10/15 11:18:16;;;;;;;0.10;0.10;;;;;;;17.32;100.00;97730.22;15262512;19;20028;-58
2022/10/15 11:24:03;;;;;;;0.10;0.10;;;;;;;17.45;100.00;97732.84;15268490;19;20470;-60
2022/10/15 11:29:40;;;;;;;0.20;0.15;;;;;;;17.57;100.00;97730.19;15276526;19;20014;-59
2022/10/15 11:35:35;;;;;;;0.40;0.20;;;;;;;17.53;100.00;97718.94;15270999;19;20032;-58
2022/10/15 11:41:28;;;;;;;0.10;0.10;;;;;;;17.67;100.00;97716.06;15282727;19;20025;-59
2022/10/15 11:47:09;;;;;;;0.10;0.10;;;;;;;17.76;100.00;97722.91;15275263;19;20018;-60
2022/10/15 11:52:54;;;;;;;0.55;0.05;;;;;;;17.86;100.00;97715.03;15280614;19;20018;-60
2022/10/15 11:58:29;;;;;;;0.10;0.10;;;;;;;18.02;100.00;97715.53;15275773;19;20422;-61
2022/10/15 12:04:04;;;;;;;0.28;0.10;;;;;;;17.92;100.00;97712.47;15272648;19;20569;-61
2022/10/15 12:09:34;;;;;;;0.20;0.17;;;;;;;17.92;100.00;97707.84;15273429;19;20082;-61
2022/10/15 12:15:13;;;;;;;0.00;0.00;;;;;;;17.97;100.00;97693.56;15277275;19;20023;-61
2022/10/15 12:20:41;;;;;;;0.52;0.00;;;;;;;18.28;100.00;97681.66;15270761;19;20014;-61
2022/10/15 12:26:31;;;;;;;0.00;0.00;;;;;;;18.57;100.00;97678.34;15277748;19;20018;-61
2022/10/15 12:31:58;;;;;;;0.20;0.10;;;;;;;18.50;100.00;97680.34;15276057;19;20031;-61
2022/10/15 12:37:36;;;;;;;0.10;0.10;;;;;;;18.55;100.00;97672.28;15263765;19;20048;-61
2022/10/15 12:43:04;;;;;;;0.08;0.08;;;;;;;18.73;100.00;97683.16;15277615;19;20371;-59
2022/10/15 12:48:39;;;;;;;0.13;0.10;;;;;;;18.70;100.00;97675.44;15272934;19;20025;-61
2022/10/15 12:54:39;;;;;;;0.10;0.10;;;;;;;18.48;100.00;97678.69;15275434;19;20024;-61
2022/10/15 13:00:07;;;;;;;0.45;0.10;;;;;;;18.26;100.00;97697.41;15269613;19;20388;-61
2022/10/15 13:05:33;;;;;;;0.08;0.08;;;;;;;18.24;100.00;97704.16;15275815;19;20018;-61
2022/10/15 13:11:05;;;;;;;0.20;0.20;;;;;;;18.31;100.00;97702.19;15266259;19;20021;-61
2022/10/15 13:16:31;;;;;;;0.28;0.20;;;;;;;18.29;100.00;97707.03;15272658;19;20654;-61
2022/10/15 13:21:57;;;;;;;1.45;0.20;;;;;;;18.26;100.00;97696.59;15268408;19;20019;-62
2022/10/15 13:27:28;;;;;;;0.35;0.10;;;;;;;18.16;100.00;97692.53;15273345;19;20027;-60
2022/10/15 13:32:55;;;;;;;;;;;;;;;18.06;100.00;97699.56;15273867;19;20026;-59
2022/10/15 13:38:30;;;;;;;0.10;0.10;;;;;;;18.27;100.00;97706.44;15270067;19;20538;-60
2022/10/15 13:44:01;;;;;;;0.15;0.15;;;;;;;18.93;100.00;97688.31;15264247;19;20022;-59
2022/10/15 13:49:27;;;;;;;0.20;0.20;;;;;;;18.79;100.00;97687.66;15266845;19;20093;-61
2022/10/15 13:54:52;;;;;;;0.20;0.20;;;;;;;18.83;100.00;97707.13;15267027;19;20026;-59
2022/10/15 14:00:28;;;;;;;2.08;0.30;;;;;;;18.71;100.00;97707.09;15266542;19;20010;-60
2022/10/15 14:05:55;;;;;;;1.33;0.25;;;;;;;18.55;100.00;97710.47;15272506;19;20486;-61
2022/10/15 14:11:22;;;;;;;0.30;0.30;;;;;;;18.33;100.00;97713.69;15268905;19;20621;-60
2022/10/15 14:16:50;;;;;;;0.77;0.20;;;;;;;18.23;100.00;97713.41;15267144;19;20010;-60
2022/10/15 14:22:15;;;;;;;0.55;0.20;;;;;;;18.22;100.00;97712.59;15269788;19;20359;-60
2022/10/15 14:27:40;;;;;;;0.20;0.20;;;;;;;18.18;100.00;97704.00;15265681;19;20006;-62
2022/10/15 14:33:07;;;;;;;0.05;0.05;;;;;;;18.20;100.00;97698.34;15268276;19;20019;-60
2022/10/15 14:38:38;;;;;;;0.20;0.20;;;;;;;18.08;100.00;97703.72;15264632;19;20022;-60
2022/10/15 14:44:20;;;;;;;1.15;0.13;;;;;;;18.02;100.00;97729.16;15260743;19;20021;-60
2022/10/15 14:49:48;;;;;;;0.68;0.20;;;;;;;17.95;100.00;97729.19;15244568;19;20082;-62
2022/10/15 14:55:18;;;;;;;0.10;0.10;;;;;;;17.83;100.00;97731.81;15270675;19;20018;-61
2022/10/15 15:00:48;;;;;;;0.47;0.20;;;;;;;17.80;100.00;97735.03;15270939;19;20454;-60
2022/10/15 15:06:16;;;;;;;0.32;0.22;;;;;;;17.81;100.00;97720.34;15281193;19;20026;-62
2022/10/15 15:11:41;;;;;;;0.17;0.17;;;;;;;17.87;100.00;97718.59;15280670;19;20016;-63
2022/10/15 15:17:06;;;;;;;0.30;0.20;;;;;;;17.94;100.00;97715.78;15273261;19;20035;-62
2022/10/15 15:22:38;;;;;;;0.65;0.13;;;;;;;17.93;100.00;97711.41;15278902;19;20022;-61
2022/10/15 15:28:03;;;;;;;2.07;0.20;;;;;;;17.98;100.00;97712.44;15278047;19;20477;-60
2022/10/15 15:33:36;;;;;;;1.65;0.32;;;;;;;17.95;100.00;97712.00;15277649;19;20025;-60
2022/10/15 15:39:04;;;;;;;0.43;0.32;;;;;;;17.84;100.00;97717.16;15281646;19;20014;-61
2022/10/15 15:44:28;;;;;;;0.57;0.40;;;;;;;17.74;100.00;97730.47;15285211;19;20025;-60
2022/10/15 15:49:53;;;;;;;0.52;0.40;;;;;;;17.61;100.00;97739.59;15269667;19;20018;-59
2022/10/15 15:55:21;;;;;;;0.20;0.20;;;;;;;17.51;100.00;97733.84;15281817;19;20023;-60
2022/10/15 16:00:46;;;;;;;0.50;0.40;;;;;;;17.43;100.00;97731.38;15282639;19;20024;-58
2022/10/15 16:06:12;;;;;;;0.45;0.40;;;;;;;17.29;100.00;97733.38;15278010;19;20010;-59
2022/10/15 16:11:41;;;;;;;0.47;0.47;;;;;;;17.20;100.00;97740.97;15275438;19;20024;-61
2022/10/15 16:17:05;;;;;;;0.40;0.40;;;;;;;17.02;100.00;97730.84;15280197;19;20006;-61
2022/10/15 16:22:30;;;;;;;1.08;0.60;;;;;;;16.94;100.00;97740.94;15271305;19;20010;-60
2022/10/15 16:28:00;;;;;;;1.63;1.40;;;;;;;16.80;100.00;97758.38;15276111;19;20541;-60
2022/10/15 16:33:25;;;;;;;0.65;0.40;;;;;;;16.72;100.00;97764.06;15277657;19;20488;-61
2022/10/15 16:38:56;;;;;;;0.75;0.40;;;;;;;16.55;100.00;97767.28;15270208;19;20021;-61
2022/10/15 16:44:23;;;;;;;0.90;0.90;;;;;;;16.46;100.00;97755.81;15278586;19;20362;-61
2022/10/15 16:49:49;;;;;;;1.00;0.93;;;;;;;16.35;100.00;97766.53;15268793;19;20009;-61
2022/10/15 16:55:15;;;;;;;0.63;0.57;;;;;;;16.25;100.00;97769.69;15264361;19;20006;-58
2022/10/15 17:00:42;;;;;;;0.98;0.50;;;;;;;16.13;100.00;97794.81;15267362;19;20043;-60
2022/10/15 17:06:10;;;;;;;2.38;1.20;;;;;;;16.12;100.00;97800.47;15277003;19;20027;-59
2022/10/15 17:11:37;;;;;;;0.70;0.60;;;;;;;16.11;100.00;97804.22;15270495;19;20029;-62
2022/10/15 17:17:06;;;;;;;0.40;0.40;;;;;;;16.11;100.00;97804.22;15273841;19;20028;-61
2022/10/15 17:22:30;;;;;;;0.80;0.73;;;;;;;16.06;100.00;97810.31;15270115;19;20017;-61
2022/10/15 17:27:56;;;;;;;0.75;0.73;;;;;;;16.09;100.00;97817.19;15258474;19;20022;-63
2022/10/15 17:33:24;;;;;;;1.10;1.10;;;;;;;16.14;100.00;97812.78;15268241;19;20014;-61
2022/10/15 17:38:56;;;;;;;1.92;1.40;;;;;;;16.17;100.00;97811.50;15263471;19;20478;-62
2022/10/15 17:44:21;;;;;;;1.50;1.40;;;;;;;16.17;100.00;97817.81;15270368;19;20465;-61
2022/10/15 17:49:48;;;;;;;0.70;0.70;;;;;;;16.20;100.00;97821.97;15265671;19;20491;-57
2022/10/15 17:55:13;;;;;;;1.30;0.50;;;;;;;16.22;100.00;97814.44;15269616;19;20050;-60
2022/10/15 18:00:38;;;;;;;0.43;0.43;;;;;;;16.22;100.00;97838.09;15253127;19;20014;-62
2022/10/15 18:06:18;;;;;;;1.13;1.02;;;;;;;16.24;100.00;97844.97;15264003;19;20579;-59
2022/10/15 18:11:44;;;;;;;2.42;2.22;;;;;;;16.21;100.00;97844.56;15260572;19;20010;-64
2022/10/15 18:17:17;;;;;;;1.02;0.90;;;;;;;16.17;100.00;97844.13;15266749;19;20803;-63
2022/10/15 18:22:44;;;;;;;0.93;0.68;;;;;;;16.18;100.00;97862.09;15265509;19;20022;-62
2022/10/15 18:28:12;;;;;;;1.50;0.90;;;;;;;16.20;100.00;97849.16;15265331;19;20402;-60
2022/10/15 18:33:38;;;;;;;1.20;1.00;;;;;;;16.21;100.00;97852.72;15258512;19;20010;-61
2022/10/15 18:39:13;;;;;;;0.47;0.40;;;;;;;16.20;100.00;97860.00;15266273;19;20017;-62
2022/10/15 18:44:38;;;;;;;1.40;0.80;;;;;;;16.21;100.00;97874.47;15262271;19;20027;-62
2022/10/15 18:50:02;;;;;;;1.42;0.80;;;;;;;16.23;100.00;97875.91;15264288;19;20019;-63
2022/10/15 18:55:30;;;;;;;0.50;0.50;;;;;;;16.22;100.00;97874.22;15269607;19;20639;-63
2022/10/15 19:00:56;;;;;;;1.17;0.50;;;;;;;16.23;100.00;97885.97;15263711;19;20025;-61
2022/10/15 19:06:22;;;;;;;1.38;1.00;;;;;;;16.23;100.00;97881.34;15260234;19;20039;-60
2022/10/15 19:11:51;;;;;;;1.77;1.02;;;;;;;16.20;100.00;97886.38;15269720;19;20019;-60
2022/10/15 19:17:16;;;;;;;1.20;0.70;;;;;;;16.20;100.00;97880.94;15263917;19;20021;-61
2022/10/15 19:22:40;;;;;;;0.70;0.70;;;;;;;16.16;100.00;97880.53;15267314;19;20007;-63
2022/10/15 19:28:00;;;;;;;0.40;0.40;;;;;;;16.12;100.00;97884.69;15262614;19;20026;-61
2022/10/15 19:33:29;;;;;;;0.65;0.65;;;;;;;16.06;100.00;97890.97;15264053;19;20014;-63
2022/10/15 19:39:00;;;;;;;0.63;0.60;;;;;;;16.04;100.00;97901.22;15257591;19;20018;-63
2022/10/15 19:44:28;;;;;;;0.47;0.40;;;;;;;15.98;100.00;97895.56;15269825;19;20021;-63
2022/10/15 19:49:58;;;;;;;2.10;0.30;;;;;;;15.95;100.00;97911.47;15269081;19;20479;-63
2022/10/15 19:55:23;;;;;;;0.47;0.47;;;;;;;15.92;100.00;97918.16;15282826;19;20082;-63
2022/10/15 20:00:55;;;;;;;1.13;0.50;;;;;;;15.90;100.00;97941.97;15273509;19;20866;-63
2022/10/15 20:06:21;;;;;;;0.45;0.30;;;;;;;15.83;100.00;97941.06;15278963;19;20025;-60
2022/10/15 20:11:46;;;;;;;0.25;0.25;;;;;;;15.75;100.00;97954.88;15278653;19;20022;-62
2022/10/15 20:17:13;;;;;;;0.50;0.30;;;;;;;15.70;100.00;97945.44;15275505;19;20482;-59
2022/10/15 20:22:38;;;;;;;0.65;0.40;;;;;;;15.64;100.00;97959.84;15269226;19;20003;-55
2022/10/15 20:28:03;;;;;;;0.20;0.20;;;;;;;15.67;100.00;97975.75;15273267;19;20082;-53
2022/10/15 20:33:31;;;;;;;0.35;0.30;;;;;;;15.64;100.00;97972.63;15281463;19;20011;-56
2022/10/15 20:39:02;;;;;;;0.30;0.30;;;;;;;15.62;100.00;97983.66;15271356;19;20019;-56
2022/10/15 20:44:27;;;;;;;0.40;0.30;;;;;;;15.60;100.00;97988.44;15274382;19;20082;-58
2022/10/15 20:49:58;;;;;;;0.55;0.50;;;;;;;15.59;100.00;97983.25;15270791;19;20014;-57
2022/10/15 20:55:23;;;;;;;0.40;0.40;;;;;;;15.56;100.00;97979.06;15272250;19;20021;-55
2022/10/15 21:00:48;;;;;;;0.20;0.20;;;;;;;15.49;100.00;97986.31;15272582;19;20247;-56
2022/10/15 21:06:16;;;;;;;1.17;0.43;;;;;;;15.49;100.00;97995.31;15273544;19;20351;-56
2022/10/15 21:11:41;;;;;;;0.82;0.30;;;;;;;15.39;100.00;98006.56;15265521;19;20022;-56
2022/10/15 21:17:08;;;;;;;1.30;0.30;;;;;;;15.37;100.00;98008.63;15273325;19;20031;-56
2022/10/15 21:22:36;;;;;;;0.22;0.22;;;;;;;15.33;100.00;98007.38;15272611;19;20023;-55
2022/10/15 21:28:01;;;;;;;1.50;0.50;;;;;;;15.29;100.00;98016.94;15267421;19;20006;-56
2022/10/15 21:33:25;;;;;;;0.35;0.20;;;;;;;15.20;100.00;98029.84;15272263;19;20018;-56
2022/10/15 21:39:02;;;;;;;0.30;0.30;;;;;;;15.19;100.00;98039.03;15269149;19;20546;-55
2022/10/15 21:44:28;;;;;;;0.20;0.20;;;;;;;15.17;100.00;98041.09;15265729;19;20010;-57
2022/10/15 21:49:52;;;;;;;0.40;0.20;;;;;;;15.11;100.00;98036.47;15270746;19;20014;-56
2022/10/15 21:55:21;;;;;;;1.15;0.20;;;;;;;15.16;100.00;98044.03;15272302;19;20017;-58
2022/10/15 22:00:46;;;;;;;1.88;0.25;;;;;;;15.21;100.00;98052.41;15263154;19;20604;-57
2022/10/15 22:06:12;;;;;;;0.20;0.15;;;;;;;15.29;100.00;98057.66;15272386;19;20366;-57
2022/10/15 22:11:41;;;;;;;0.30;0.30;;;;;;;15.35;100.00;98058.72;15268603;19;20488;-57
2022/10/15 22:17:06;;;;;;;0.20;0.20;;;;;;;15.40;100.00;98046.22;15261114;19;20006;-55
2022/10/15 22:22:31;;;;;;;0.28;0.20;;;;;;;15.44;100.00;98035.81;15267814;19;20017;-57
2022/10/15 22:28:00;;;;;;;0.30;0.30;;;;;;;15.50;100.00;98039.59;15268058;19;20402;-57
2022/10/15 22:33:25;;;;;;;0.43;0.30;;;;;;;15.52;100.00;98051.09;15261194;19;20024;-55
2022/10/15 22:39:03;;;;;;;0.30;0.30;;;;;;;15.58;100.00;98047.56;15266479;19;20398;-58
2022/10/15 22:44:24;;;;;;;1.90;0.20;;;;;;;15.62;100.00;98048.81;15268131;19;20485;-55
2022/10/15 22:49:49;;;;;;;0.22;0.22;;;;;;;15.67;100.00;98040.06;15259506;19;20018;-57
2022/10/15 22:55:14;;;;;;;0.25;0.20;;;;;;;15.70;100.00;98039.66;15268555;19;20026;-56
2022/10/15 23:00:41;;;;;;;2.97;0.30;;;;;;;15.74;100.00;98046.38;15265220;19;20022;-56
2022/10/15 23:06:05;;;;;;;0.10;0.10;;;;;;;15.78;100.00;98044.09;15264040;19;20018;-57
2022/10/15 23:11:32;;;;;;;2.40;0.22;;;;;;;15.81;100.00;98041.78;15270165;19;20470;-53
2022/10/15 23:16:59;;;;;;;0.30;0.20;;;;;;;15.82;100.00;98058.91;15267841;19;20019;-56
2022/10/15 23:22:24;;;;;;;0.20;0.10;;;;;;;15.85;100.00;98063.97;15267395;19;20014;-54
2022/10/15 23:27:50;;;;;;;1.55;0.38;;;;;;;15.86;100.00;98068.38;15286405;19;20021;-52
2022/10/15 23:33:17;;;;;;;0.43;0.20;;;;;;;15.87;100.00;98064.63;15281213;19;20086;-53
2022/10/15 23:38:48;;;;;;;0.63;0.20;;;;;;;15.86;100.00;98079.22;15273128;19;20025;-51
2022/10/15 23:44:14;;;;;;;1.33;0.20;;;;;;;15.83;100.00;98072.31;15284390;19;20358;-52
2022/10/15 23:49:41;;;;;;;0.30;0.20;;;;;;;15.80;100.00;98083.56;15281574;19;20795;-55
2022/10/15 23:55:07;;;;;;;0.22;0.17;;;;;;;15.78;100.00;98091.09;15275320;19;20378;-53
